Saint Cloud, Minnesota
Current Conditions -  °F | °C
As of 5:53 AM on Friday 19 Dec 2014 (Local Time) from KSTC Reporting Station
Overcast Overcast  
Wind Chill: 13°   Ceiling: 1700
Heat Index: 22°   Visibility: 7mi
Dew Point: 17°   Wind: 7mph
Humidity: 82%   Direction: 130°SE
Pressure: 30.21"   Gusts: NA
Location:  45.55°N, 94.06°W
Report Text: KSTC 191153Z AUTO 13006KT 7SM OVC017 M06/M08 A3021 RMK AO2 SNE1058 SLP255 P0000 60002 70003 T10561083 11056 21056 56011
Loading
Personal Weather Stations






























Interactive Weather Map New forecast layout! Learn more

10-Day Weather Forecast

Advertisements
Track Severe Weather on mobile